createdAt,value
2018-11-04T00:02:14.611Z,6.20
2018-11-04T00:04:44.632Z,6.57
2018-11-04T00:07:14.795Z,7.87
2018-11-04T00:09:44.871Z,8.20
2018-11-04T00:12:15.111Z,7.73
2018-11-04T00:14:45.140Z,9.27
2018-11-04T00:17:15.335Z,6.87
2018-11-04T00:19:45.445Z,7.87
2018-11-04T00:22:15.558Z,5.77
2018-11-04T00:24:45.570Z,7.90
2018-11-04T00:27:15.822Z,7.97
2018-11-04T00:29:46.151Z,7.47
2018-11-04T00:32:16.309Z,8.50
2018-11-04T00:34:46.958Z,8.00
2018-11-04T00:37:17.009Z,8.80
2018-11-04T00:39:47.290Z,10.00
2018-11-04T00:42:17.464Z,8.57
2018-11-04T00:44:48.036Z,9.03
2018-11-04T00:47:18.189Z,9.07
2018-11-04T00:49:48.390Z,8.60
2018-11-04T00:52:18.453Z,8.40
2018-11-04T00:54:50.480Z,8.57
2018-11-04T00:57:20.612Z,8.83
2018-11-04T00:59:50.674Z,8.27
2018-11-04T01:02:20.870Z,9.20
2018-11-04T01:04:50.901Z,8.27
2018-11-04T01:07:21.018Z,7.47
2018-11-04T01:09:51.171Z,6.97
2018-11-04T01:12:21.325Z,7.73
2018-11-04T01:14:51.363Z,7.83
2018-11-04T01:17:21.510Z,9.57
2018-11-04T01:19:51.526Z,8.37
2018-11-04T01:22:21.567Z,7.37
2018-11-04T01:24:51.605Z,9.37
2018-11-04T01:27:21.732Z,7.60
2018-11-04T01:29:51.811Z,9.00
2018-11-04T01:32:22.420Z,7.83
2018-11-04T01:34:52.543Z,8.40
2018-11-04T01:37:22.539Z,8.87
2018-11-04T01:39:52.647Z,8.53
2018-11-04T01:42:22.697Z,10.70
2018-11-04T01:44:52.837Z,8.23
2018-11-04T01:47:22.929Z,8.17
2018-11-04T01:49:53.045Z,6.97
2018-11-04T01:52:23.344Z,6.63
2018-11-04T01:54:53.585Z,7.57
2018-11-04T01:57:23.731Z,6.17
2018-11-04T01:59:53.717Z,7.43
2018-11-04T02:02:23.956Z,9.20
2018-11-04T02:04:54.090Z,8.03
2018-11-04T02:07:24.137Z,8.47
2018-11-04T02:09:54.227Z,7.10
2018-11-04T02:12:24.373Z,6.10
2018-11-04T02:14:54.419Z,5.93
2018-11-04T02:17:24.468Z,7.87
2018-11-04T02:19:54.460Z,7.10
2018-11-04T02:22:24.616Z,5.90
2018-11-04T02:24:54.705Z,6.50
2018-11-04T02:27:24.943Z,7.30
2018-11-04T02:29:54.889Z,5.83
2018-11-04T02:32:24.967Z,5.87
2018-11-04T02:34:55.031Z,6.73
2018-11-04T02:37:25.061Z,7.37
2018-11-04T02:39:55.151Z,7.83
2018-11-04T02:42:25.103Z,8.27
2018-11-04T02:44:55.153Z,7.37
2018-11-04T02:47:25.211Z,8.57
2018-11-04T02:49:55.207Z,9.13
2018-11-04T02:52:25.259Z,7.80
2018-11-04T02:54:55.245Z,7.00
2018-11-04T02:57:25.224Z,8.63
2018-11-04T02:59:55.218Z,8.97
2018-11-04T03:02:25.265Z,7.50
2018-11-04T03:04:55.318Z,8.70
2018-11-04T03:07:25.378Z,7.27
2018-11-04T03:09:55.431Z,7.10
2018-11-04T03:12:25.542Z,6.63
2018-11-04T03:14:55.629Z,7.27
2018-11-04T03:17:25.878Z,6.87
2018-11-04T03:19:56.044Z,7.97
2018-11-04T03:22:26.059Z,7.77
2018-11-04T03:24:56.319Z,7.80
2018-11-04T03:27:26.786Z,6.87
2018-11-04T03:29:56.866Z,6.33
2018-11-04T03:32:26.895Z,5.87
2018-11-04T03:34:56.967Z,7.13
2018-11-04T03:37:26.949Z,6.27
2018-11-04T03:39:56.947Z,6.30
2018-11-04T03:42:27.014Z,5.93
2018-11-04T03:44:57.221Z,6.43
2018-11-04T03:47:27.251Z,7.63
2018-11-04T03:49:57.246Z,6.67
2018-11-04T03:52:27.447Z,5.37
2018-11-04T03:54:57.391Z,6.73
2018-11-04T03:57:27.504Z,6.00
2018-11-04T03:59:57.555Z,5.77
2018-11-04T04:02:27.581Z,6.43
2018-11-04T04:04:57.764Z,7.13
2018-11-04T04:07:27.888Z,4.80
2018-11-04T04:09:57.938Z,5.53
2018-11-04T04:12:28.102Z,5.93
2018-11-04T04:14:58.188Z,6.20
2018-11-04T04:17:28.160Z,5.50
2018-11-04T04:19:58.276Z,5.27
2018-11-04T04:22:28.374Z,5.77
2018-11-04T04:24:58.492Z,6.23
2018-11-04T04:27:28.462Z,6.20
2018-11-04T04:29:58.943Z,5.30
2018-11-04T04:32:29.218Z,5.43
2018-11-04T04:34:59.440Z,5.30
2018-11-04T04:37:29.496Z,5.63
2018-11-04T04:39:59.584Z,5.73
2018-11-04T04:42:29.601Z,5.40
2018-11-04T04:44:59.700Z,5.63
2018-11-04T04:47:29.726Z,6.13
2018-11-04T04:49:59.950Z,5.50
2018-11-04T04:52:30.053Z,5.60
2018-11-04T04:55:00.102Z,5.47
2018-11-04T04:57:30.162Z,5.73
2018-11-04T05:00:00.156Z,5.77
2018-11-04T05:02:30.243Z,5.47
2018-11-04T05:05:00.355Z,5.13
2018-11-04T05:07:30.529Z,7.30
2018-11-04T05:10:01.114Z,4.87
2018-11-04T05:12:31.150Z,5.07
2018-11-04T05:15:01.329Z,4.67
2018-11-04T05:17:31.381Z,5.07
2018-11-04T05:20:01.342Z,4.50
2018-11-04T05:22:31.347Z,4.43
2018-11-04T05:25:01.668Z,4.20
2018-11-04T05:27:31.679Z,4.27
2018-11-04T05:30:02.189Z,4.43
2018-11-04T05:32:32.390Z,4.50
2018-11-04T05:35:02.552Z,3.97
2018-11-04T05:37:32.827Z,3.67
2018-11-04T05:40:02.904Z,3.53
2018-11-04T05:42:32.952Z,3.93
2018-11-04T05:45:03.402Z,3.83
2018-11-04T05:47:33.389Z,3.47
2018-11-04T05:50:03.355Z,4.10
2018-11-04T05:52:33.721Z,3.97
2018-11-04T05:55:04.011Z,3.90
2018-11-04T05:57:34.195Z,3.70
2018-11-04T06:00:04.526Z,3.90
2018-11-04T06:02:34.747Z,3.93
2018-11-04T06:05:05.472Z,4.10
2018-11-04T06:07:35.464Z,3.67
2018-11-04T06:10:06.462Z,4.13
2018-11-04T06:12:36.758Z,3.77
2018-11-04T06:15:08.130Z,4.50
2018-11-04T06:17:38.204Z,3.67
2018-11-04T06:20:10.175Z,3.70
2018-11-04T06:22:40.737Z,3.67
2018-11-04T06:25:10.890Z,3.77
2018-11-04T06:27:41.089Z,3.60
2018-11-04T06:30:13.023Z,3.37
2018-11-04T06:32:43.854Z,3.30
2018-11-04T06:35:14.029Z,3.50
2018-11-04T06:37:44.136Z,3.63
2018-11-04T06:40:14.175Z,3.27
2018-11-04T06:42:44.206Z,3.30
2018-11-04T06:45:14.281Z,3.80
2018-11-04T06:47:44.303Z,3.63
2018-11-04T06:50:14.520Z,3.67
2018-11-04T06:52:44.777Z,3.80
2018-11-04T06:55:15.263Z,3.97
2018-11-04T06:57:45.335Z,3.50
2018-11-04T07:00:15.431Z,3.17
2018-11-04T07:02:45.537Z,3.57
2018-11-04T07:05:15.609Z,3.30
2018-11-04T07:07:45.653Z,3.40
2018-11-04T07:10:15.639Z,3.80
2018-11-04T07:12:45.785Z,3.13
2018-11-04T07:15:15.816Z,3.27
2018-11-04T07:17:45.856Z,2.97
2018-11-04T07:20:15.943Z,3.80
2018-11-04T07:22:46.058Z,3.33
2018-11-04T07:25:16.049Z,3.00
2018-11-04T07:27:46.241Z,2.93
2018-11-04T07:30:16.298Z,3.13
2018-11-04T07:32:46.334Z,3.33
2018-11-04T07:35:16.293Z,2.90
2018-11-04T07:37:46.329Z,3.40
2018-11-04T07:40:16.307Z,3.20
2018-11-04T07:42:46.406Z,3.03
2018-11-04T07:45:16.598Z,2.73
2018-11-04T07:47:46.681Z,3.27
2018-11-04T07:50:16.714Z,3.30
2018-11-04T07:52:46.734Z,3.33
2018-11-04T07:55:16.976Z,2.83
2018-11-04T07:57:47.123Z,2.77
2018-11-04T08:00:17.396Z,3.00
2018-11-04T08:02:47.455Z,3.20
2018-11-04T08:05:17.472Z,4.07
2018-11-04T08:07:47.702Z,3.07
2018-11-04T08:10:17.783Z,3.60
2018-11-04T08:12:47.814Z,3.00
2018-11-04T08:15:17.975Z,2.90
2018-11-04T08:17:48.031Z,3.50
2018-11-04T08:20:18.119Z,3.33
2018-11-04T08:22:48.161Z,3.47
2018-11-04T08:25:18.306Z,2.87
2018-11-04T08:27:49.059Z,2.93
2018-11-04T08:30:19.011Z,3.17
2018-11-04T08:32:49.143Z,3.50
2018-11-04T08:35:19.152Z,4.03
2018-11-04T08:37:49.317Z,3.20
2018-11-04T08:40:19.411Z,3.17
2018-11-04T08:42:50.500Z,3.13
2018-11-04T08:45:20.603Z,3.07
2018-11-04T08:47:50.698Z,3.10
2018-11-04T08:50:20.742Z,2.73
2018-11-04T08:52:50.900Z,2.97
2018-11-04T08:55:20.996Z,2.53
2018-11-04T08:57:51.115Z,2.80
2018-11-04T09:00:21.201Z,2.40
2018-11-04T09:02:51.252Z,2.33
2018-11-04T09:05:21.449Z,2.87
2018-11-04T09:07:51.562Z,3.07
2018-11-04T09:10:21.707Z,3.53
2018-11-04T09:12:51.718Z,2.83
2018-11-04T09:15:21.883Z,3.10
2018-11-04T09:17:52.024Z,3.33
2018-11-04T09:20:22.241Z,2.87
2018-11-04T09:22:52.428Z,3.13
2018-11-04T09:25:22.552Z,3.40
2018-11-04T09:27:52.610Z,2.97
2018-11-04T09:30:22.719Z,3.70
2018-11-04T09:32:52.792Z,3.17
2018-11-04T09:35:22.993Z,3.80
2018-11-04T09:37:52.976Z,3.20
2018-11-04T09:40:23.031Z,4.30
2018-11-04T09:42:53.139Z,2.60
2018-11-04T09:45:23.123Z,3.40
2018-11-04T09:47:53.206Z,2.63
2018-11-04T09:50:23.395Z,3.23
2018-11-04T09:52:53.396Z,2.43
2018-11-04T09:55:23.496Z,3.53
2018-11-04T09:57:53.566Z,3.47
2018-11-04T10:00:23.731Z,3.03
2018-11-04T10:02:53.802Z,3.27
2018-11-04T10:05:23.854Z,4.87
2018-11-04T10:07:53.940Z,3.57
2018-11-04T10:10:24.084Z,3.13
2018-11-04T10:12:54.098Z,2.80
2018-11-04T10:15:24.105Z,3.97
2018-11-04T10:17:54.260Z,2.67
2018-11-04T10:20:24.634Z,3.00
2018-11-04T10:22:54.395Z,2.50
2018-11-04T10:25:24.447Z,3.37
2018-11-04T10:27:54.596Z,4.03
2018-11-04T10:30:24.837Z,3.03
2018-11-04T10:32:54.853Z,2.47
2018-11-04T10:35:24.941Z,3.37
2018-11-04T10:37:55.071Z,2.93
2018-11-04T10:40:25.267Z,2.27
2018-11-04T10:42:55.485Z,2.20
2018-11-04T10:45:25.518Z,2.30
2018-11-04T10:47:55.703Z,2.60
2018-11-04T10:50:25.822Z,2.57
2018-11-04T10:52:56.001Z,2.00
2018-11-04T10:55:26.187Z,1.87
2018-11-04T10:57:56.321Z,2.57
2018-11-04T11:00:31.656Z,2.33
2018-11-04T11:03:01.898Z,2.00
2018-11-04T11:05:32.105Z,3.27
2018-11-04T11:08:02.384Z,2.47
2018-11-04T11:10:32.421Z,2.27
2018-11-04T11:13:02.666Z,2.20
2018-11-04T11:15:32.777Z,2.40
2018-11-04T11:18:03.063Z,2.17
2018-11-04T11:20:33.324Z,3.03
2018-11-04T11:23:03.573Z,2.47
2018-11-04T11:25:34.501Z,2.40
2018-11-04T11:28:04.621Z,2.07
2018-11-04T11:30:34.612Z,2.00
2018-11-04T11:33:05.238Z,2.40
2018-11-04T11:35:35.266Z,1.80
2018-11-04T11:38:05.830Z,2.60
2018-11-04T11:40:35.931Z,1.73
2018-11-04T11:43:07.128Z,2.20
2018-11-04T11:45:37.262Z,1.83
2018-11-04T11:48:08.030Z,2.80
2018-11-04T11:50:38.450Z,2.13
2018-11-04T11:53:08.531Z,2.60
2018-11-04T11:55:38.749Z,2.43
2018-11-04T11:58:08.953Z,2.13
2018-11-04T12:00:38.982Z,2.20
2018-11-04T12:03:09.176Z,2.10
2018-11-04T12:05:39.214Z,2.60
2018-11-04T12:08:09.332Z,2.83
2018-11-04T12:10:39.403Z,3.00
2018-11-04T12:13:09.455Z,2.00
2018-11-04T12:15:39.666Z,2.30
2018-11-04T12:18:09.713Z,2.90
2018-11-04T12:20:39.733Z,3.50
2018-11-04T12:23:09.830Z,2.57
2018-11-04T12:25:39.909Z,2.20
2018-11-04T12:28:09.964Z,2.20
2018-11-04T12:30:39.975Z,2.43
2018-11-04T12:33:10.017Z,2.63
2018-11-04T12:35:40.025Z,3.10
2018-11-04T12:38:10.127Z,2.23
2018-11-04T12:40:40.192Z,2.10
2018-11-04T12:43:10.320Z,2.53
2018-11-04T12:45:40.522Z,3.07
2018-11-04T12:48:10.493Z,2.83
2018-11-04T12:50:40.664Z,2.67
2018-11-04T12:53:17.390Z,2.20
2018-11-04T12:55:47.451Z,2.20
2018-11-04T12:58:17.485Z,1.87
2018-11-04T13:00:47.593Z,2.33
2018-11-04T13:03:17.665Z,2.13
2018-11-04T13:05:47.698Z,1.83
2018-11-04T13:08:17.853Z,1.53
2018-11-04T13:10:48.126Z,1.80
2018-11-04T13:13:18.231Z,2.20
2018-11-04T13:15:48.337Z,2.67
2018-11-04T13:18:18.344Z,2.73
2018-11-04T13:20:48.375Z,2.33
2018-11-04T13:23:19.734Z,3.03
2018-11-04T13:25:49.868Z,2.17
2018-11-04T13:28:20.138Z,1.80
2018-11-04T13:30:50.260Z,1.47
2018-11-04T13:33:20.564Z,1.60
2018-11-04T13:35:50.591Z,1.80
2018-11-04T13:38:20.632Z,1.50
2018-11-04T13:40:50.647Z,2.03
2018-11-04T13:43:20.794Z,1.87
2018-11-04T13:45:50.802Z,2.53
2018-11-04T13:48:21.254Z,2.40
2018-11-04T13:50:51.269Z,1.53
2018-11-04T13:53:21.441Z,2.00
2018-11-04T13:55:51.435Z,1.83
2018-11-04T13:58:21.569Z,2.20
2018-11-04T14:00:51.723Z,1.73
2018-11-04T14:03:21.940Z,2.17
2018-11-04T14:05:52.091Z,1.70
2018-11-04T14:08:22.153Z,2.10
2018-11-04T14:10:52.373Z,2.13
2018-11-04T14:13:22.578Z,1.93
2018-11-04T14:15:52.701Z,1.90
2018-11-04T14:18:22.825Z,2.33
2018-11-04T14:20:52.853Z,2.20
2018-11-04T14:23:23.168Z,1.87
2018-11-04T14:25:53.164Z,2.60
2018-11-04T14:28:23.322Z,2.60
2018-11-04T14:30:54.347Z,2.53
2018-11-04T14:33:24.982Z,2.40
2018-11-04T14:35:55.176Z,2.20
2018-11-04T14:38:25.321Z,2.07
2018-11-04T14:40:55.367Z,2.37
2018-11-04T14:43:25.577Z,2.13
2018-11-04T14:45:55.821Z,2.50
2018-11-04T14:48:25.773Z,2.07
2018-11-04T14:50:56.001Z,2.40
2018-11-04T14:53:26.119Z,1.90
2018-11-04T14:55:56.282Z,2.40
2018-11-04T14:58:26.611Z,2.93
2018-11-04T15:00:56.771Z,2.43
2018-11-04T15:03:26.843Z,2.63
2018-11-04T15:05:57.052Z,2.40
2018-11-04T15:08:27.170Z,2.40
2018-11-04T15:10:57.367Z,2.33
2018-11-04T15:13:27.379Z,2.40
2018-11-04T15:15:57.413Z,2.33
2018-11-04T15:18:27.553Z,2.00
2018-11-04T15:20:57.606Z,1.90
2018-11-04T15:23:27.691Z,2.73
2018-11-04T15:25:57.691Z,2.23
2018-11-04T15:28:27.823Z,2.30
2018-11-04T15:30:57.926Z,2.43
2018-11-04T15:33:28.083Z,2.70
2018-11-04T15:35:58.136Z,2.03
2018-11-04T15:38:28.283Z,2.00
2018-11-04T15:40:58.427Z,2.20
2018-11-04T15:43:28.656Z,2.50
2018-11-04T15:45:58.822Z,2.57
2018-11-04T15:48:28.987Z,2.30
2018-11-04T15:50:59.093Z,1.80
2018-11-04T15:53:29.245Z,2.00
2018-11-04T15:55:59.347Z,2.13
2018-11-04T15:58:29.515Z,2.70
2018-11-04T16:00:59.698Z,2.50
2018-11-04T16:03:29.795Z,2.10
2018-11-04T16:05:59.973Z,2.30
2018-11-04T16:08:30.309Z,2.20
2018-11-04T16:11:00.534Z,2.17
2018-11-04T16:13:30.598Z,2.40
2018-11-04T16:16:00.671Z,1.73
2018-11-04T16:18:30.964Z,2.20
2018-11-04T16:21:01.024Z,2.57
2018-11-04T16:23:31.302Z,2.27
2018-11-04T16:26:01.564Z,2.40
2018-11-04T16:28:31.790Z,2.43
2018-11-04T16:31:01.920Z,2.27
2018-11-04T16:33:32.100Z,2.13
2018-11-04T16:36:02.288Z,2.40
2018-11-04T16:38:32.603Z,2.27
2018-11-04T16:41:02.870Z,2.50
2018-11-04T16:43:32.986Z,3.23
2018-11-04T16:46:03.103Z,3.90
2018-11-04T16:48:33.286Z,4.17
2018-11-04T16:51:03.325Z,4.07
2018-11-04T16:53:33.420Z,3.87
2018-11-04T16:56:03.640Z,3.60
2018-11-04T16:58:33.705Z,3.57
2018-11-04T17:01:03.771Z,3.03
2018-11-04T17:03:33.964Z,3.00
2018-11-04T17:06:04.108Z,2.87
2018-11-04T17:08:34.268Z,3.00
2018-11-04T17:11:04.785Z,2.60
2018-11-04T17:13:34.911Z,2.33
2018-11-04T17:16:05.585Z,2.70
2018-11-04T17:18:35.725Z,2.30
2018-11-04T17:21:06.043Z,2.40
2018-11-04T17:23:36.207Z,2.93
2018-11-04T17:26:06.593Z,2.20
2018-11-04T17:28:36.848Z,2.23
2018-11-04T17:31:07.384Z,2.40
2018-11-04T17:33:37.563Z,2.00
2018-11-04T17:36:07.733Z,2.37
2018-11-04T17:38:37.929Z,2.20
2018-11-04T17:41:07.991Z,2.53
2018-11-04T17:43:38.065Z,2.70
2018-11-04T17:46:08.536Z,2.50
2018-11-04T17:48:38.745Z,2.47
2018-11-04T17:51:08.953Z,2.40
2018-11-04T17:53:39.216Z,2.80
2018-11-04T17:56:09.760Z,2.50
2018-11-04T17:58:39.953Z,2.60
2018-11-04T18:01:10.077Z,2.77
2018-11-04T18:03:40.384Z,2.50
2018-11-04T18:06:10.658Z,2.20
2018-11-04T18:08:41.086Z,2.23
2018-11-04T18:11:11.214Z,2.70
2018-11-04T18:13:41.387Z,2.20
2018-11-04T18:16:11.705Z,2.47
2018-11-04T18:18:42.549Z,2.20
2018-11-04T18:21:12.595Z,2.00
2018-11-04T18:23:42.726Z,1.70
2018-11-04T18:26:12.879Z,2.20
2018-11-04T18:28:42.976Z,2.00
2018-11-04T18:31:13.132Z,1.90
2018-11-04T18:33:43.387Z,1.83
2018-11-04T18:36:13.544Z,2.03
2018-11-04T18:38:43.588Z,2.13
2018-11-04T18:41:13.757Z,1.80
2018-11-04T18:43:44.523Z,2.37
2018-11-04T18:46:14.694Z,2.30
2018-11-04T18:48:44.833Z,2.30
2018-11-04T18:51:14.880Z,1.90
2018-11-04T18:53:45.155Z,2.10
2018-11-04T18:56:15.264Z,1.90
2018-11-04T18:58:45.291Z,1.97
2018-11-04T19:01:15.576Z,2.20
2018-11-04T19:03:45.905Z,2.30
2018-11-04T19:06:16.146Z,2.03
2018-11-04T19:08:46.351Z,2.07
2018-11-04T19:11:16.466Z,2.33
2018-11-04T19:13:46.564Z,2.10
2018-11-04T19:16:16.691Z,2.20
2018-11-04T19:18:46.820Z,2.40
2018-11-04T19:21:16.954Z,2.53
2018-11-04T19:23:47.129Z,2.43
2018-11-04T19:26:17.361Z,2.40
2018-11-04T19:28:48.125Z,2.30
2018-11-04T19:31:18.316Z,2.50
2018-11-04T19:33:48.421Z,2.27
2018-11-04T19:36:18.558Z,2.30
2018-11-04T19:38:49.614Z,2.43
2018-11-04T19:41:19.753Z,3.07
2018-11-04T19:43:49.935Z,2.63
2018-11-04T19:46:20.119Z,2.10
2018-11-04T19:48:50.411Z,2.53
2018-11-04T19:51:21.283Z,2.70
2018-11-04T19:53:51.345Z,2.37
2018-11-04T19:56:21.477Z,2.80
2018-11-04T19:58:51.714Z,2.90
2018-11-04T20:01:22.942Z,3.10
2018-11-04T20:03:53.555Z,3.40
2018-11-04T20:06:23.697Z,3.37
2018-11-04T20:08:59.105Z,3.53
2018-11-04T20:11:29.713Z,3.40
2018-11-04T20:14:05.206Z,3.03
2018-11-04T20:16:35.535Z,3.80
2018-11-04T20:19:11.143Z,3.23
2018-11-04T20:21:41.130Z,3.20
2018-11-04T20:24:16.531Z,3.73
2018-11-04T20:26:46.641Z,3.53
2018-11-04T20:29:16.699Z,3.23
2018-11-04T20:31:51.904Z,3.40
2018-11-04T20:34:22.292Z,3.17
2018-11-04T20:36:52.456Z,3.50
2018-11-04T20:39:27.912Z,3.40
2018-11-04T20:41:58.305Z,3.37
2018-11-04T20:44:28.561Z,3.47
2018-11-04T20:46:58.611Z,3.37
2018-11-04T20:49:33.709Z,3.33
2018-11-04T20:52:03.870Z,2.97
2018-11-04T20:54:33.860Z,4.03
2018-11-04T20:57:09.248Z,3.77
2018-11-04T20:59:39.300Z,3.80
2018-11-04T21:02:09.387Z,3.57
2018-11-04T21:04:39.425Z,3.27
2018-11-04T21:07:09.899Z,3.83
2018-11-04T21:09:40.154Z,3.73
2018-11-04T21:12:10.272Z,3.23
2018-11-04T21:14:40.493Z,4.07
2018-11-04T21:17:10.531Z,4.40
2018-11-04T21:19:40.650Z,3.73
2018-11-04T21:22:11.697Z,3.53
2018-11-04T21:24:42.734Z,3.83
2018-11-04T21:27:12.931Z,4.10
2018-11-04T21:29:43.350Z,3.67
2018-11-04T21:32:13.222Z,3.37
2018-11-04T21:34:43.448Z,3.90
2018-11-04T21:37:13.474Z,3.93
2018-11-04T21:39:43.510Z,4.43
2018-11-04T21:42:13.540Z,4.17
2018-11-04T21:44:43.563Z,3.93
2018-11-04T21:47:13.722Z,3.20
2018-11-04T21:49:43.870Z,3.43
2018-11-04T21:52:14.071Z,4.20
2018-11-04T21:54:44.222Z,4.33
2018-11-04T21:57:14.540Z,4.10
2018-11-04T21:59:44.651Z,4.23
2018-11-04T22:02:14.791Z,4.17
2018-11-04T22:04:45.028Z,3.83
2018-11-04T22:07:15.087Z,4.43
2018-11-04T22:09:45.303Z,4.23
2018-11-04T22:12:15.477Z,4.00
2018-11-04T22:14:45.746Z,4.57
2018-11-04T22:17:15.731Z,4.27
2018-11-04T22:19:45.886Z,4.37
2018-11-04T22:22:16.062Z,3.90
2018-11-04T22:24:46.178Z,3.73
2018-11-04T22:27:16.250Z,4.23
2018-11-04T22:29:46.406Z,4.50
2018-11-04T22:32:16.605Z,5.00
2018-11-04T22:34:46.702Z,4.43
2018-11-04T22:37:16.666Z,4.43
2018-11-04T22:39:46.866Z,5.00
2018-11-04T22:42:17.140Z,4.20
2018-11-04T22:44:47.199Z,4.20
2018-11-04T22:47:17.388Z,4.23
2018-11-04T22:49:48.011Z,5.07
2018-11-04T22:52:18.056Z,4.97
2018-11-04T22:54:48.699Z,4.20
2018-11-04T22:57:18.872Z,4.57
2018-11-04T22:59:49.095Z,4.27
2018-11-04T23:02:19.310Z,4.53
2018-11-04T23:04:54.658Z,4.20
2018-11-04T23:07:24.820Z,4.30
2018-11-04T23:09:55.128Z,5.87
2018-11-04T23:12:25.347Z,5.17
2018-11-04T23:14:55.410Z,4.30
2018-11-04T23:17:25.420Z,6.43
2018-11-04T23:19:55.434Z,6.13
2018-11-04T23:22:25.499Z,4.37
2018-11-04T23:24:55.559Z,4.90
2018-11-04T23:27:25.688Z,4.33
2018-11-04T23:29:55.831Z,5.23
2018-11-04T23:32:25.941Z,4.50
2018-11-04T23:34:56.076Z,4.60
2018-11-04T23:37:26.094Z,4.50
2018-11-04T23:39:56.298Z,5.67
2018-11-04T23:42:26.254Z,4.63
2018-11-04T23:44:57.305Z,4.90
2018-11-04T23:47:27.341Z,5.03
2018-11-04T23:49:57.313Z,4.87
2018-11-04T23:52:27.416Z,4.87
2018-11-04T23:54:57.552Z,5.37
2018-11-04T23:57:27.597Z,5.93
2018-11-04T23:59:57.599Z,4.70
